sensor_id;sensor_type;location;lat;lon;timestamp;P1;durP1;ratioP1;P2;durP2;ratioP2
12906;SDS011;6521;50.498;8.474;2022-12-26T00:00:07;4.50;;;3.43;;
12906;SDS011;6521;50.498;8.474;2022-12-26T00:02:41;5.30;;;3.77;;
12906;SDS011;6521;50.498;8.474;2022-12-26T00:05:11;4.40;;;3.50;;
12906;SDS011;6521;50.498;8.474;2022-12-26T00:07:42;3.33;;;3.03;;
12906;SDS011;6521;50.498;8.474;2022-12-26T00:10:13;6.17;;;3.37;;
12906;SDS011;6521;50.498;8.474;2022-12-26T00:12:44;3.83;;;3.43;;
12906;SDS011;6521;50.498;8.474;2022-12-26T00:15:14;3.90;;;3.50;;
12906;SDS011;6521;50.498;8.474;2022-12-26T00:17:45;4.20;;;3.80;;
12906;SDS011;6521;50.498;8.474;2022-12-26T00:20:16;4.03;;;3.63;;
12906;SDS011;6521;50.498;8.474;2022-12-26T00:22:47;3.97;;;3.40;;
12906;SDS011;6521;50.498;8.474;2022-12-26T00:25:17;5.67;;;3.77;;
12906;SDS011;6521;50.498;8.474;2022-12-26T00:27:48;6.07;;;3.80;;
12906;SDS011;6521;50.498;8.474;2022-12-26T00:30:19;5.90;;;3.50;;
12906;SDS011;6521;50.498;8.474;2022-12-26T00:32:52;5.03;;;3.53;;
12906;SDS011;6521;50.498;8.474;2022-12-26T00:35:22;6.77;;;3.40;;
12906;SDS011;6521;50.498;8.474;2022-12-26T00:37:53;6.70;;;3.13;;
12906;SDS011;6521;50.498;8.474;2022-12-26T00:40:24;5.57;;;3.73;;
12906;SDS011;6521;50.498;8.474;2022-12-26T00:42:54;9.33;;;3.60;;
12906;SDS011;6521;50.498;8.474;2022-12-26T00:45:25;4.23;;;3.47;;
12906;SDS011;6521;50.498;8.474;2022-12-26T00:47:56;4.40;;;3.53;;
12906;SDS011;6521;50.498;8.474;2022-12-26T00:50:27;3.87;;;3.23;;
12906;SDS011;6521;50.498;8.474;2022-12-26T00:52:57;4.80;;;3.97;;
12906;SDS011;6521;50.498;8.474;2022-12-26T00:55:28;7.17;;;3.60;;
12906;SDS011;6521;50.498;8.474;2022-12-26T00:57:59;7.13;;;3.40;;
12906;SDS011;6521;50.498;8.474;2022-12-26T01:00:31;4.13;;;3.30;;
12906;SDS011;6521;50.498;8.474;2022-12-26T01:03:02;3.50;;;3.20;;
12906;SDS011;6521;50.498;8.474;2022-12-26T01:05:43;4.60;;;3.57;;
12906;SDS011;6521;50.498;8.474;2022-12-26T01:08:16;7.83;;;3.50;;
12906;SDS011;6521;50.498;8.474;2022-12-26T01:10:49;6.17;;;3.43;;
12906;SDS011;6521;50.498;8.474;2022-12-26T01:13:20;4.47;;;3.20;;
12906;SDS011;6521;50.498;8.474;2022-12-26T01:15:51;4.30;;;3.13;;
12906;SDS011;6521;50.498;8.474;2022-12-26T01:18:23;4.80;;;3.63;;
12906;SDS011;6521;50.498;8.474;2022-12-26T01:21:00;4.47;;;3.30;;
12906;SDS011;6521;50.498;8.474;2022-12-26T01:23:35;4.60;;;3.03;;
12906;SDS011;6521;50.498;8.474;2022-12-26T01:26:06;4.93;;;3.27;;
12906;SDS011;6521;50.498;8.474;2022-12-26T01:28:37;4.33;;;3.10;;
12906;SDS011;6521;50.498;8.474;2022-12-26T01:31:08;3.73;;;2.93;;
12906;SDS011;6521;50.498;8.474;2022-12-26T01:33:38;4.73;;;4.23;;
12906;SDS011;6521;50.498;8.474;2022-12-26T01:36:09;5.77;;;3.43;;
12906;SDS011;6521;50.498;8.474;2022-12-26T01:38:40;3.83;;;2.70;;
12906;SDS011;6521;50.498;8.474;2022-12-26T01:41:12;4.97;;;3.10;;
12906;SDS011;6521;50.498;8.474;2022-12-26T01:43:47;6.43;;;3.83;;
12906;SDS011;6521;50.498;8.474;2022-12-26T01:49:07;7.40;;;3.10;;
12906;SDS011;6521;50.498;8.474;2022-12-26T01:51:43;7.73;;;3.20;;
12906;SDS011;6521;50.498;8.474;2022-12-26T01:54:18;5.33;;;2.97;;
12906;SDS011;6521;50.498;8.474;2022-12-26T01:56:51;7.57;;;3.00;;
12906;SDS011;6521;50.498;8.474;2022-12-26T01:59:25;5.77;;;3.13;;
12906;SDS011;6521;50.498;8.474;2022-12-26T02:01:59;5.10;;;3.40;;
12906;SDS011;6521;50.498;8.474;2022-12-26T02:04:34;5.63;;;3.37;;
12906;SDS011;6521;50.498;8.474;2022-12-26T02:07:26;8.13;;;2.83;;
12906;SDS011;6521;50.498;8.474;2022-12-26T02:09:58;4.83;;;3.57;;
12906;SDS011;6521;50.498;8.474;2022-12-26T02:12:29;4.97;;;3.40;;
12906;SDS011;6521;50.498;8.474;2022-12-26T02:15:03;4.17;;;2.60;;
12906;SDS011;6521;50.498;8.474;2022-12-26T02:17:45;5.73;;;3.00;;
12906;SDS011;6521;50.498;8.474;2022-12-26T02:20:18;4.87;;;3.00;;
12906;SDS011;6521;50.498;8.474;2022-12-26T02:25:45;4.53;;;2.90;;
12906;SDS011;6521;50.498;8.474;2022-12-26T02:31:13;4.37;;;2.80;;
12906;SDS011;6521;50.498;8.474;2022-12-26T02:33:55;3.60;;;3.23;;
12906;SDS011;6521;50.498;8.474;2022-12-26T02:39:42;3.43;;;2.80;;
12906;SDS011;6521;50.498;8.474;2022-12-26T02:45:24;4.37;;;3.30;;
12906;SDS011;6521;50.498;8.474;2022-12-26T02:57:19;4.63;;;3.17;;
12906;SDS011;6521;50.498;8.474;2022-12-26T03:00:16;4.73;;;3.07;;
12906;SDS011;6521;50.498;8.474;2022-12-26T03:03:17;4.17;;;3.30;;
12906;SDS011;6521;50.498;8.474;2022-12-26T03:06:16;5.37;;;3.50;;
12906;SDS011;6521;50.498;8.474;2022-12-26T03:09:11;6.33;;;3.20;;
12906;SDS011;6521;50.498;8.474;2022-12-26T03:12:26;4.53;;;3.00;;
12906;SDS011;6521;50.498;8.474;2022-12-26T03:15:23;4.83;;;3.20;;
12906;SDS011;6521;50.498;8.474;2022-12-26T03:17:59;7.27;;;3.63;;
12906;SDS011;6521;50.498;8.474;2022-12-26T03:20:33;4.70;;;3.37;;
12906;SDS011;6521;50.498;8.474;2022-12-26T03:23:07;5.03;;;3.63;;
12906;SDS011;6521;50.498;8.474;2022-12-26T03:28:46;6.10;;;2.93;;
12906;SDS011;6521;50.498;8.474;2022-12-26T03:31:17;4.37;;;3.07;;
12906;SDS011;6521;50.498;8.474;2022-12-26T03:33:48;4.80;;;3.03;;
12906;SDS011;6521;50.498;8.474;2022-12-26T03:42:54;7.00;;;2.93;;
12906;SDS011;6521;50.498;8.474;2022-12-26T03:46:16;7.70;;;3.50;;
12906;SDS011;6521;50.498;8.474;2022-12-26T03:49:26;4.50;;;3.03;;
12906;SDS011;6521;50.498;8.474;2022-12-26T03:52:34;4.80;;;3.00;;
12906;SDS011;6521;50.498;8.474;2022-12-26T03:55:35;5.57;;;3.27;;
12906;SDS011;6521;50.498;8.474;2022-12-26T04:01:41;7.30;;;3.27;;
12906;SDS011;6521;50.498;8.474;2022-12-26T04:04:32;7.60;;;3.17;;
12906;SDS011;6521;50.498;8.474;2022-12-26T04:07:26;5.23;;;3.10;;
12906;SDS011;6521;50.498;8.474;2022-12-26T04:10:20;5.27;;;3.13;;
12906;SDS011;6521;50.498;8.474;2022-12-26T04:13:14;4.93;;;2.50;;
12906;SDS011;6521;50.498;8.474;2022-12-26T04:16:24;6.77;;;3.10;;
12906;SDS011;6521;50.498;8.474;2022-12-26T04:25:51;9.10;;;2.90;;
12906;SDS011;6521;50.498;8.474;2022-12-26T04:28:47;5.53;;;3.20;;
12906;SDS011;6521;50.498;8.474;2022-12-26T04:31:42;5.03;;;2.97;;
12906;SDS011;6521;50.498;8.474;2022-12-26T04:37:42;4.10;;;2.60;;
12906;SDS011;6521;50.498;8.474;2022-12-26T04:40:35;4.10;;;3.10;;
12906;SDS011;6521;50.498;8.474;2022-12-26T04:43:28;5.57;;;3.00;;
12906;SDS011;6521;50.498;8.474;2022-12-26T04:46:19;4.17;;;2.57;;
12906;SDS011;6521;50.498;8.474;2022-12-26T04:48:52;4.30;;;2.90;;
12906;SDS011;6521;50.498;8.474;2022-12-26T04:51:42;9.23;;;2.90;;
12906;SDS011;6521;50.498;8.474;2022-12-26T04:54:13;4.77;;;2.50;;
12906;SDS011;6521;50.498;8.474;2022-12-26T04:56:44;8.07;;;3.13;;
12906;SDS011;6521;50.498;8.474;2022-12-26T04:59:16;4.13;;;2.50;;
12906;SDS011;6521;50.498;8.474;2022-12-26T05:01:48;4.33;;;2.70;;
12906;SDS011;6521;50.498;8.474;2022-12-26T05:04:40;6.70;;;3.10;;
12906;SDS011;6521;50.498;8.474;2022-12-26T05:07:32;10.93;;;3.10;;
12906;SDS011;6521;50.498;8.474;2022-12-26T05:10:24;8.07;;;2.77;;
12906;SDS011;6521;50.498;8.474;2022-12-26T05:12:57;6.90;;;2.87;;
12906;SDS011;6521;50.498;8.474;2022-12-26T05:15:28;8.20;;;3.30;;
12906;SDS011;6521;50.498;8.474;2022-12-26T05:18:21;4.03;;;2.80;;
12906;SDS011;6521;50.498;8.474;2022-12-26T05:21:11;4.63;;;2.47;;
12906;SDS011;6521;50.498;8.474;2022-12-26T05:24:03;4.10;;;2.60;;
12906;SDS011;6521;50.498;8.474;2022-12-26T05:26:52;5.00;;;3.10;;
12906;SDS011;6521;50.498;8.474;2022-12-26T05:29:46;5.17;;;2.80;;
12906;SDS011;6521;50.498;8.474;2022-12-26T05:32:18;5.03;;;2.70;;
12906;SDS011;6521;50.498;8.474;2022-12-26T05:35:07;7.17;;;2.60;;
12906;SDS011;6521;50.498;8.474;2022-12-26T05:37:38;4.43;;;2.70;;
12906;SDS011;6521;50.498;8.474;2022-12-26T05:40:09;8.03;;;2.77;;
12906;SDS011;6521;50.498;8.474;2022-12-26T05:42:40;7.73;;;2.50;;
12906;SDS011;6521;50.498;8.474;2022-12-26T05:45:11;3.47;;;2.00;;
12906;SDS011;6521;50.498;8.474;2022-12-26T05:47:42;6.23;;;2.33;;
12906;SDS011;6521;50.498;8.474;2022-12-26T05:50:13;5.30;;;2.40;;
12906;SDS011;6521;50.498;8.474;2022-12-26T05:52:43;7.87;;;2.93;;
12906;SDS011;6521;50.498;8.474;2022-12-26T05:55:14;4.47;;;2.37;;
12906;SDS011;6521;50.498;8.474;2022-12-26T05:57:45;6.23;;;2.70;;
12906;SDS011;6521;50.498;8.474;2022-12-26T06:00:16;5.90;;;2.83;;
12906;SDS011;6521;50.498;8.474;2022-12-26T06:02:47;4.87;;;3.00;;
12906;SDS011;6521;50.498;8.474;2022-12-26T06:05:18;4.80;;;2.40;;
12906;SDS011;6521;50.498;8.474;2022-12-26T06:07:49;5.03;;;2.50;;
12906;SDS011;6521;50.498;8.474;2022-12-26T06:10:20;4.80;;;2.30;;
12906;SDS011;6521;50.498;8.474;2022-12-26T06:12:50;6.20;;;2.17;;
12906;SDS011;6521;50.498;8.474;2022-12-26T06:15:23;10.37;;;2.53;;
12906;SDS011;6521;50.498;8.474;2022-12-26T06:17:54;6.97;;;2.80;;
12906;SDS011;6521;50.498;8.474;2022-12-26T06:20:26;5.17;;;2.50;;
12906;SDS011;6521;50.498;8.474;2022-12-26T06:22:57;6.83;;;2.53;;
12906;SDS011;6521;50.498;8.474;2022-12-26T06:25:27;4.50;;;2.13;;
12906;SDS011;6521;50.498;8.474;2022-12-26T06:27:59;6.47;;;2.73;;
12906;SDS011;6521;50.498;8.474;2022-12-26T06:30:30;4.30;;;2.40;;
12906;SDS011;6521;50.498;8.474;2022-12-26T06:33:00;4.50;;;2.50;;
12906;SDS011;6521;50.498;8.474;2022-12-26T06:35:32;3.83;;;2.23;;
12906;SDS011;6521;50.498;8.474;2022-12-26T06:38:03;2.80;;;2.27;;
12906;SDS011;6521;50.498;8.474;2022-12-26T06:40:36;3.77;;;2.40;;
12906;SDS011;6521;50.498;8.474;2022-12-26T06:43:08;5.63;;;2.60;;
12906;SDS011;6521;50.498;8.474;2022-12-26T06:45:39;4.63;;;1.93;;
12906;SDS011;6521;50.498;8.474;2022-12-26T06:48:09;4.03;;;2.57;;
12906;SDS011;6521;50.498;8.474;2022-12-26T06:50:40;8.83;;;2.80;;
12906;SDS011;6521;50.498;8.474;2022-12-26T06:53:11;3.30;;;1.97;;
12906;SDS011;6521;50.498;8.474;2022-12-26T06:55:41;5.63;;;2.60;;
12906;SDS011;6521;50.498;8.474;2022-12-26T06:58:12;4.10;;;2.13;;
12906;SDS011;6521;50.498;8.474;2022-12-26T07:00:43;3.83;;;1.97;;
12906;SDS011;6521;50.498;8.474;2022-12-26T07:03:14;5.10;;;2.13;;
12906;SDS011;6521;50.498;8.474;2022-12-26T07:05:45;3.97;;;2.30;;
12906;SDS011;6521;50.498;8.474;2022-12-26T07:08:16;8.20;;;2.73;;
12906;SDS011;6521;50.498;8.474;2022-12-26T07:10:47;6.80;;;2.67;;
12906;SDS011;6521;50.498;8.474;2022-12-26T07:13:17;5.40;;;2.50;;
12906;SDS011;6521;50.498;8.474;2022-12-26T07:15:48;5.13;;;2.47;;
12906;SDS011;6521;50.498;8.474;2022-12-26T07:18:19;4.50;;;2.33;;
12906;SDS011;6521;50.498;8.474;2022-12-26T07:20:49;5.90;;;2.90;;
12906;SDS011;6521;50.498;8.474;2022-12-26T07:23:20;4.30;;;2.57;;
12906;SDS011;6521;50.498;8.474;2022-12-26T07:25:51;5.87;;;2.83;;
12906;SDS011;6521;50.498;8.474;2022-12-26T07:28:21;6.77;;;2.20;;
12906;SDS011;6521;50.498;8.474;2022-12-26T07:30:52;3.57;;;2.33;;
12906;SDS011;6521;50.498;8.474;2022-12-26T07:33:23;4.03;;;2.50;;
12906;SDS011;6521;50.498;8.474;2022-12-26T07:35:58;4.87;;;2.20;;
12906;SDS011;6521;50.498;8.474;2022-12-26T07:38:34;6.93;;;2.43;;
12906;SDS011;6521;50.498;8.474;2022-12-26T07:41:04;8.13;;;2.53;;
12906;SDS011;6521;50.498;8.474;2022-12-26T07:43:55;3.53;;;2.37;;
12906;SDS011;6521;50.498;8.474;2022-12-26T07:46:26;4.90;;;2.43;;
12906;SDS011;6521;50.498;8.474;2022-12-26T07:48:57;4.60;;;2.47;;
12906;SDS011;6521;50.498;8.474;2022-12-26T07:51:27;5.10;;;2.13;;
12906;SDS011;6521;50.498;8.474;2022-12-26T07:54:01;4.20;;;2.13;;
12906;SDS011;6521;50.498;8.474;2022-12-26T07:56:32;2.30;;;2.10;;
12906;SDS011;6521;50.498;8.474;2022-12-26T07:59:06;6.40;;;2.53;;
12906;SDS011;6521;50.498;8.474;2022-12-26T08:01:45;3.93;;;1.93;;
12906;SDS011;6521;50.498;8.474;2022-12-26T08:04:16;2.43;;;2.13;;
12906;SDS011;6521;50.498;8.474;2022-12-26T08:06:46;2.97;;;1.70;;
12906;SDS011;6521;50.498;8.474;2022-12-26T08:09:17;2.23;;;1.57;;
12906;SDS011;6521;50.498;8.474;2022-12-26T08:11:48;3.40;;;1.63;;
12906;SDS011;6521;50.498;8.474;2022-12-26T08:14:18;2.93;;;1.57;;
12906;SDS011;6521;50.498;8.474;2022-12-26T08:16:49;3.40;;;1.40;;
12906;SDS011;6521;50.498;8.474;2022-12-26T08:19:20;4.30;;;1.77;;
12906;SDS011;6521;50.498;8.474;2022-12-26T08:21:52;3.40;;;1.30;;
12906;SDS011;6521;50.498;8.474;2022-12-26T08:24:22;2.30;;;1.37;;
12906;SDS011;6521;50.498;8.474;2022-12-26T08:26:53;1.83;;;1.40;;
12906;SDS011;6521;50.498;8.474;2022-12-26T08:29:24;2.17;;;1.37;;
12906;SDS011;6521;50.498;8.474;2022-12-26T08:31:55;1.67;;;1.40;;
12906;SDS011;6521;50.498;8.474;2022-12-26T08:34:32;4.73;;;1.50;;
12906;SDS011;6521;50.498;8.474;2022-12-26T08:37:03;3.00;;;1.30;;
12906;SDS011;6521;50.498;8.474;2022-12-26T08:39:34;13.33;;;1.50;;
12906;SDS011;6521;50.498;8.474;2022-12-26T08:42:05;3.07;;;1.40;;
12906;SDS011;6521;50.498;8.474;2022-12-26T08:44:35;3.53;;;1.30;;
12906;SDS011;6521;50.498;8.474;2022-12-26T08:47:06;1.87;;;1.20;;
12906;SDS011;6521;50.498;8.474;2022-12-26T08:49:37;2.60;;;1.53;;
12906;SDS011;6521;50.498;8.474;2022-12-26T08:52:07;3.17;;;1.67;;
12906;SDS011;6521;50.498;8.474;2022-12-26T08:54:38;6.80;;;1.43;;
12906;SDS011;6521;50.498;8.474;2022-12-26T08:57:09;3.40;;;1.30;;
12906;SDS011;6521;50.498;8.474;2022-12-26T08:59:40;3.33;;;1.07;;
12906;SDS011;6521;50.498;8.474;2022-12-26T09:02:11;1.37;;;0.90;;
12906;SDS011;6521;50.498;8.474;2022-12-26T09:04:41;1.23;;;1.13;;
12906;SDS011;6521;50.498;8.474;2022-12-26T09:07:12;1.03;;;1.03;;
12906;SDS011;6521;50.498;8.474;2022-12-26T09:09:43;3.17;;;1.53;;
12906;SDS011;6521;50.498;8.474;2022-12-26T09:12:14;9.03;;;1.67;;
12906;SDS011;6521;50.498;8.474;2022-12-26T09:14:45;4.70;;;1.20;;
12906;SDS011;6521;50.498;8.474;2022-12-26T09:17:18;2.83;;;1.10;;
12906;SDS011;6521;50.498;8.474;2022-12-26T09:19:49;5.07;;;2.43;;
12906;SDS011;6521;50.498;8.474;2022-12-26T09:22:21;7.93;;;4.20;;
12906;SDS011;6521;50.498;8.474;2022-12-26T09:25:11;10.10;;;6.70;;
12906;SDS011;6521;50.498;8.474;2022-12-26T09:27:41;8.00;;;5.57;;
12906;SDS011;6521;50.498;8.474;2022-12-26T09:30:14;3.70;;;1.60;;
12906;SDS011;6521;50.498;8.474;2022-12-26T09:32:45;1.90;;;1.80;;
12906;SDS011;6521;50.498;8.474;2022-12-26T09:35:16;2.00;;;1.50;;
12906;SDS011;6521;50.498;8.474;2022-12-26T09:37:47;1.20;;;1.10;;
12906;SDS011;6521;50.498;8.474;2022-12-26T09:40:20;2.03;;;1.27;;
12906;SDS011;6521;50.498;8.474;2022-12-26T09:42:57;4.63;;;1.60;;
12906;SDS011;6521;50.498;8.474;2022-12-26T09:45:46;4.10;;;1.73;;
12906;SDS011;6521;50.498;8.474;2022-12-26T09:49:09;2.73;;;1.60;;
12906;SDS011;6521;50.498;8.474;2022-12-26T09:51:43;2.33;;;1.70;;
12906;SDS011;6521;50.498;8.474;2022-12-26T09:57:20;4.53;;;2.03;;
12906;SDS011;6521;50.498;8.474;2022-12-26T09:59:57;4.80;;;2.00;;
12906;SDS011;6521;50.498;8.474;2022-12-26T10:02:29;8.80;;;1.97;;
12906;SDS011;6521;50.498;8.474;2022-12-26T10:05:00;5.77;;;2.63;;
12906;SDS011;6521;50.498;8.474;2022-12-26T10:07:37;4.90;;;2.03;;
12906;SDS011;6521;50.498;8.474;2022-12-26T10:15:40;3.10;;;2.43;;
12906;SDS011;6521;50.498;8.474;2022-12-26T10:21:04;3.40;;;2.00;;
12906;SDS011;6521;50.498;8.474;2022-12-26T10:23:51;2.77;;;1.77;;
12906;SDS011;6521;50.498;8.474;2022-12-26T10:26:39;2.30;;;1.50;;
12906;SDS011;6521;50.498;8.474;2022-12-26T10:29:20;4.70;;;1.67;;
12906;SDS011;6521;50.498;8.474;2022-12-26T10:31:57;2.73;;;1.47;;
12906;SDS011;6521;50.498;8.474;2022-12-26T10:37:34;3.20;;;1.70;;
12906;SDS011;6521;50.498;8.474;2022-12-26T10:42:54;2.47;;;1.43;;
12906;SDS011;6521;50.498;8.474;2022-12-26T10:45:32;4.50;;;1.40;;
12906;SDS011;6521;50.498;8.474;2022-12-26T10:48:04;2.90;;;1.60;;
12906;SDS011;6521;50.498;8.474;2022-12-26T10:50:35;4.67;;;1.60;;
12906;SDS011;6521;50.498;8.474;2022-12-26T10:53:09;2.70;;;1.80;;
12906;SDS011;6521;50.498;8.474;2022-12-26T10:55:42;1.67;;;1.30;;
12906;SDS011;6521;50.498;8.474;2022-12-26T10:58:25;4.23;;;1.70;;
12906;SDS011;6521;50.498;8.474;2022-12-26T11:04:13;2.13;;;1.47;;
12906;SDS011;6521;50.498;8.474;2022-12-26T11:06:45;2.73;;;1.43;;
12906;SDS011;6521;50.498;8.474;2022-12-26T11:15:25;2.50;;;1.40;;
12906;SDS011;6521;50.498;8.474;2022-12-26T11:18:07;2.10;;;1.50;;
12906;SDS011;6521;50.498;8.474;2022-12-26T11:23:50;2.13;;;1.50;;
12906;SDS011;6521;50.498;8.474;2022-12-26T11:26:23;2.40;;;1.40;;
12906;SDS011;6521;50.498;8.474;2022-12-26T11:31:39;2.03;;;1.27;;
12906;SDS011;6521;50.498;8.474;2022-12-26T11:34:16;3.90;;;1.63;;
12906;SDS011;6521;50.498;8.474;2022-12-26T11:37:03;2.27;;;1.63;;
12906;SDS011;6521;50.498;8.474;2022-12-26T11:39:36;2.77;;;1.40;;
12906;SDS011;6521;50.498;8.474;2022-12-26T11:42:10;3.07;;;1.90;;
12906;SDS011;6521;50.498;8.474;2022-12-26T11:44:47;4.17;;;1.57;;
12906;SDS011;6521;50.498;8.474;2022-12-26T11:47:25;1.47;;;1.20;;
12906;SDS011;6521;50.498;8.474;2022-12-26T11:49:59;1.93;;;1.30;;
12906;SDS011;6521;50.498;8.474;2022-12-26T12:00:37;1.53;;;1.20;;
12906;SDS011;6521;50.498;8.474;2022-12-26T12:03:10;2.57;;;1.33;;
12906;SDS011;6521;50.498;8.474;2022-12-26T12:05:52;1.47;;;1.17;;
12906;SDS011;6521;50.498;8.474;2022-12-26T12:14:43;4.13;;;1.40;;
12906;SDS011;6521;50.498;8.474;2022-12-26T12:20:39;3.00;;;1.70;;
12906;SDS011;6521;50.498;8.474;2022-12-26T12:26:16;1.37;;;1.10;;
12906;SDS011;6521;50.498;8.474;2022-12-26T12:49:26;1.90;;;1.40;;
12906;SDS011;6521;50.498;8.474;2022-12-26T12:52:28;2.60;;;1.43;;
12906;SDS011;6521;50.498;8.474;2022-12-26T12:55:09;2.60;;;1.33;;
12906;SDS011;6521;50.498;8.474;2022-12-26T13:00:55;4.30;;;1.50;;
12906;SDS011;6521;50.498;8.474;2022-12-26T13:06:03;5.00;;;2.27;;
12906;SDS011;6521;50.498;8.474;2022-12-26T13:11:24;6.50;;;1.80;;
12906;SDS011;6521;50.498;8.474;2022-12-26T13:14:09;2.07;;;1.67;;
12906;SDS011;6521;50.498;8.474;2022-12-26T13:16:46;6.27;;;1.83;;
12906;SDS011;6521;50.498;8.474;2022-12-26T13:19:24;5.93;;;1.90;;
12906;SDS011;6521;50.498;8.474;2022-12-26T13:22:03;1.90;;;1.50;;
12906;SDS011;6521;50.498;8.474;2022-12-26T13:24:44;4.80;;;1.30;;
12906;SDS011;6521;50.498;8.474;2022-12-26T13:27:20;1.70;;;1.30;;
12906;SDS011;6521;50.498;8.474;2022-12-26T13:29:55;3.63;;;1.60;;
12906;SDS011;6521;50.498;8.474;2022-12-26T13:32:26;10.13;;;1.80;;
12906;SDS011;6521;50.498;8.474;2022-12-26T13:35:00;3.37;;;1.57;;
12906;SDS011;6521;50.498;8.474;2022-12-26T13:43:06;2.57;;;1.40;;
12906;SDS011;6521;50.498;8.474;2022-12-26T13:46:04;2.63;;;1.47;;
12906;SDS011;6521;50.498;8.474;2022-12-26T13:51:07;1.60;;;1.20;;
12906;SDS011;6521;50.498;8.474;2022-12-26T13:54:26;6.33;;;1.57;;
12906;SDS011;6521;50.498;8.474;2022-12-26T13:57:05;3.70;;;1.03;;
12906;SDS011;6521;50.498;8.474;2022-12-26T13:59:40;4.83;;;1.07;;
12906;SDS011;6521;50.498;8.474;2022-12-26T14:08:12;2.93;;;1.30;;
12906;SDS011;6521;50.498;8.474;2022-12-26T14:25:24;1.67;;;1.00;;
12906;SDS011;6521;50.498;8.474;2022-12-26T14:36:58;2.10;;;1.20;;
12906;SDS011;6521;50.498;8.474;2022-12-26T14:43:09;3.50;;;1.97;;
12906;SDS011;6521;50.498;8.474;2022-12-26T14:45:58;3.27;;;1.83;;
12906;SDS011;6521;50.498;8.474;2022-12-26T14:53:34;9.63;;;2.40;;
12906;SDS011;6521;50.498;8.474;2022-12-26T15:04:05;5.07;;;2.87;;
12906;SDS011;6521;50.498;8.474;2022-12-26T15:18:07;6.13;;;3.47;;
12906;SDS011;6521;50.498;8.474;2022-12-26T15:24:07;18.47;;;9.37;;
12906;SDS011;6521;50.498;8.474;2022-12-26T15:30:19;25.57;;;11.87;;
12906;SDS011;6521;50.498;8.474;2022-12-26T15:38:16;5.60;;;3.60;;
12906;SDS011;6521;50.498;8.474;2022-12-26T15:46:20;3.20;;;2.43;;
12906;SDS011;6521;50.498;8.474;2022-12-26T16:05:46;4.10;;;2.07;;
12906;SDS011;6521;50.498;8.474;2022-12-26T16:11:29;2.20;;;1.10;;
12906;SDS011;6521;50.498;8.474;2022-12-26T16:14:28;2.30;;;1.07;;
12906;SDS011;6521;50.498;8.474;2022-12-26T16:19:50;2.10;;;1.30;;
12906;SDS011;6521;50.498;8.474;2022-12-26T16:22:37;4.07;;;2.37;;
12906;SDS011;6521;50.498;8.474;2022-12-26T16:25:17;2.70;;;1.30;;
12906;SDS011;6521;50.498;8.474;2022-12-26T16:27:52;1.03;;;0.93;;
12906;SDS011;6521;50.498;8.474;2022-12-26T16:30:26;3.40;;;0.87;;
12906;SDS011;6521;50.498;8.474;2022-12-26T16:33:00;1.50;;;1.00;;
12906;SDS011;6521;50.498;8.474;2022-12-26T16:35:33;1.60;;;1.20;;
12906;SDS011;6521;50.498;8.474;2022-12-26T16:38:11;2.10;;;1.13;;
12906;SDS011;6521;50.498;8.474;2022-12-26T16:40:49;1.97;;;1.13;;
12906;SDS011;6521;50.498;8.474;2022-12-26T16:43:22;3.77;;;2.70;;
12906;SDS011;6521;50.498;8.474;2022-12-26T16:45:56;5.50;;;4.57;;
12906;SDS011;6521;50.498;8.474;2022-12-26T16:48:30;3.53;;;2.20;;
12906;SDS011;6521;50.498;8.474;2022-12-26T16:51:03;6.33;;;2.53;;
12906;SDS011;6521;50.498;8.474;2022-12-26T16:54:13;3.33;;;2.50;;
12906;SDS011;6521;50.498;8.474;2022-12-26T16:56:50;7.87;;;3.13;;
12906;SDS011;6521;50.498;8.474;2022-12-26T16:59:47;3.67;;;2.90;;
12906;SDS011;6521;50.498;8.474;2022-12-26T17:02:29;2.80;;;2.37;;
12906;SDS011;6521;50.498;8.474;2022-12-26T17:05:04;2.13;;;1.50;;
12906;SDS011;6521;50.498;8.474;2022-12-26T17:07:38;8.27;;;6.00;;
12906;SDS011;6521;50.498;8.474;2022-12-26T17:10:23;7.60;;;2.50;;
12906;SDS011;6521;50.498;8.474;2022-12-26T17:13:03;3.20;;;2.90;;
12906;SDS011;6521;50.498;8.474;2022-12-26T17:15:38;2.47;;;2.27;;
12906;SDS011;6521;50.498;8.474;2022-12-26T17:23:57;2.53;;;1.87;;
12906;SDS011;6521;50.498;8.474;2022-12-26T17:26:39;2.83;;;1.97;;
12906;SDS011;6521;50.498;8.474;2022-12-26T17:32:06;2.23;;;2.03;;
12906;SDS011;6521;50.498;8.474;2022-12-26T17:34:38;2.07;;;1.60;;
12906;SDS011;6521;50.498;8.474;2022-12-26T17:37:22;3.67;;;1.80;;
12906;SDS011;6521;50.498;8.474;2022-12-26T17:42:47;3.13;;;1.30;;
12906;SDS011;6521;50.498;8.474;2022-12-26T17:45:23;2.60;;;1.30;;
12906;SDS011;6521;50.498;8.474;2022-12-26T17:47:55;2.03;;;1.70;;
12906;SDS011;6521;50.498;8.474;2022-12-26T17:50:35;2.53;;;1.70;;
12906;SDS011;6521;50.498;8.474;2022-12-26T17:56:05;1.60;;;1.30;;
12906;SDS011;6521;50.498;8.474;2022-12-26T17:58:41;3.43;;;1.50;;
12906;SDS011;6521;50.498;8.474;2022-12-26T18:01:13;1.77;;;1.47;;
12906;SDS011;6521;50.498;8.474;2022-12-26T18:03:45;6.90;;;2.93;;
12906;SDS011;6521;50.498;8.474;2022-12-26T18:06:15;2.63;;;1.70;;
12906;SDS011;6521;50.498;8.474;2022-12-26T18:08:47;8.57;;;4.97;;
12906;SDS011;6521;50.498;8.474;2022-12-26T18:11:17;6.87;;;4.23;;
12906;SDS011;6521;50.498;8.474;2022-12-26T18:13:48;4.03;;;3.37;;
12906;SDS011;6521;50.498;8.474;2022-12-26T18:16:19;2.67;;;2.20;;
12906;SDS011;6521;50.498;8.474;2022-12-26T18:18:54;5.07;;;2.63;;
12906;SDS011;6521;50.498;8.474;2022-12-26T18:21:24;3.00;;;2.20;;
12906;SDS011;6521;50.498;8.474;2022-12-26T18:23:55;4.33;;;2.27;;
12906;SDS011;6521;50.498;8.474;2022-12-26T18:26:26;4.03;;;2.50;;
12906;SDS011;6521;50.498;8.474;2022-12-26T18:28:58;3.43;;;2.30;;
12906;SDS011;6521;50.498;8.474;2022-12-26T18:31:29;3.97;;;2.57;;
12906;SDS011;6521;50.498;8.474;2022-12-26T18:34:00;3.87;;;2.27;;
12906;SDS011;6521;50.498;8.474;2022-12-26T18:36:32;3.27;;;2.93;;
12906;SDS011;6521;50.498;8.474;2022-12-26T18:39:05;4.27;;;3.17;;
12906;SDS011;6521;50.498;8.474;2022-12-26T18:41:36;4.27;;;2.90;;
12906;SDS011;6521;50.498;8.474;2022-12-26T18:44:07;4.10;;;2.83;;
12906;SDS011;6521;50.498;8.474;2022-12-26T18:46:38;4.40;;;2.70;;
12906;SDS011;6521;50.498;8.474;2022-12-26T18:49:09;3.57;;;2.90;;
12906;SDS011;6521;50.498;8.474;2022-12-26T18:51:40;7.37;;;3.80;;
12906;SDS011;6521;50.498;8.474;2022-12-26T18:54:11;8.43;;;5.00;;
12906;SDS011;6521;50.498;8.474;2022-12-26T18:56:41;8.63;;;6.10;;
12906;SDS011;6521;50.498;8.474;2022-12-26T18:59:12;10.53;;;6.40;;
12906;SDS011;6521;50.498;8.474;2022-12-26T19:01:42;8.17;;;5.87;;
12906;SDS011;6521;50.498;8.474;2022-12-26T19:04:13;8.20;;;5.90;;
12906;SDS011;6521;50.498;8.474;2022-12-26T19:06:45;9.07;;;5.53;;
12906;SDS011;6521;50.498;8.474;2022-12-26T19:09:16;14.37;;;6.30;;
12906;SDS011;6521;50.498;8.474;2022-12-26T19:11:46;13.13;;;6.33;;
12906;SDS011;6521;50.498;8.474;2022-12-26T19:14:18;7.30;;;5.70;;
12906;SDS011;6521;50.498;8.474;2022-12-26T19:16:51;8.37;;;6.20;;
12906;SDS011;6521;50.498;8.474;2022-12-26T19:19:21;8.90;;;5.47;;
12906;SDS011;6521;50.498;8.474;2022-12-26T19:21:56;6.83;;;5.83;;
12906;SDS011;6521;50.498;8.474;2022-12-26T19:24:27;6.67;;;4.80;;
12906;SDS011;6521;50.498;8.474;2022-12-26T19:26:57;7.03;;;5.20;;
12906;SDS011;6521;50.498;8.474;2022-12-26T19:29:28;7.73;;;5.40;;
12906;SDS011;6521;50.498;8.474;2022-12-26T19:31:59;7.27;;;4.77;;
12906;SDS011;6521;50.498;8.474;2022-12-26T19:34:29;6.77;;;4.80;;
12906;SDS011;6521;50.498;8.474;2022-12-26T19:37:00;6.57;;;4.93;;
12906;SDS011;6521;50.498;8.474;2022-12-26T19:39:32;8.83;;;5.53;;
12906;SDS011;6521;50.498;8.474;2022-12-26T19:42:03;10.53;;;5.80;;
12906;SDS011;6521;50.498;8.474;2022-12-26T19:44:33;6.87;;;5.20;;
12906;SDS011;6521;50.498;8.474;2022-12-26T19:47:04;6.37;;;4.63;;
12906;SDS011;6521;50.498;8.474;2022-12-26T19:49:35;6.23;;;4.00;;
12906;SDS011;6521;50.498;8.474;2022-12-26T19:52:06;7.30;;;3.83;;
12906;SDS011;6521;50.498;8.474;2022-12-26T19:54:37;7.50;;;4.20;;
12906;SDS011;6521;50.498;8.474;2022-12-26T19:57:07;6.20;;;3.80;;
12906;SDS011;6521;50.498;8.474;2022-12-26T19:59:38;4.57;;;3.10;;
12906;SDS011;6521;50.498;8.474;2022-12-26T20:02:10;4.37;;;2.90;;